Terminal Aerodrome Forecast
Issued by NWS

Home | Current Version | Previous Version | Text Only | Print | Product List | Glossary On
Versions: 1 2 3 4 5 6 7 8 9 10 11 12 13 14
000
FTUS42 KGSP 031733
TAFAND
TAF
KAND 031733Z 0318/0418 07006KT P6SM FEW060 BKN250
     FM032000 31003KT P6SM VCTS SCT050CB
     FM040100 01003KT P6SM SCT060 BKN250
     FM040800 01003KT P6SM SCT070=

USA.gov is the U.S. government's official web portal to all federal, state and local government web resources and services.